sensor_id;sensor_type;location;lat;lon;timestamp;P1;durP1;ratioP1;P2;durP2;ratioP2
22129;SDS011;11231;50.746;4.272;2023-06-26T00:00:20;8.93;;;3.70;;
22129;SDS011;11231;50.746;4.272;2023-06-26T00:02:46;9.27;;;4.32;;
22129;SDS011;11231;50.746;4.272;2023-06-26T00:05:11;6.95;;;4.03;;
22129;SDS011;11231;50.746;4.272;2023-06-26T00:07:38;11.70;;;5.18;;
22129;SDS011;11231;50.746;4.272;2023-06-26T00:10:04;7.63;;;4.25;;
22129;SDS011;11231;50.746;4.272;2023-06-26T00:12:31;8.32;;;4.10;;
22129;SDS011;11231;50.746;4.272;2023-06-26T00:14:57;8.23;;;4.13;;
22129;SDS011;11231;50.746;4.272;2023-06-26T00:17:23;7.40;;;3.80;;
22129;SDS011;11231;50.746;4.272;2023-06-26T00:19:49;7.53;;;3.85;;
22129;SDS011;11231;50.746;4.272;2023-06-26T00:22:15;7.47;;;3.50;;
22129;SDS011;11231;50.746;4.272;2023-06-26T00:24:41;8.67;;;3.67;;
22129;SDS011;11231;50.746;4.272;2023-06-26T00:27:07;6.20;;;3.35;;
22129;SDS011;11231;50.746;4.272;2023-06-26T00:29:33;7.05;;;3.70;;
22129;SDS011;11231;50.746;4.272;2023-06-26T00:31:58;6.88;;;3.50;;
22129;SDS011;11231;50.746;4.272;2023-06-26T00:34:25;8.32;;;3.50;;
22129;SDS011;11231;50.746;4.272;2023-06-26T00:36:50;9.07;;;3.60;;
22129;SDS011;11231;50.746;4.272;2023-06-26T00:39:17;7.93;;;3.20;;
22129;SDS011;11231;50.746;4.272;2023-06-26T00:41:42;8.48;;;3.42;;
22129;SDS011;11231;50.746;4.272;2023-06-26T00:44:10;9.27;;;3.60;;
22129;SDS011;11231;50.746;4.272;2023-06-26T00:46:35;10.63;;;3.93;;
22129;SDS011;11231;50.746;4.272;2023-06-26T00:49:02;8.43;;;3.97;;
22129;SDS011;11231;50.746;4.272;2023-06-26T00:51:28;8.70;;;3.63;;
22129;SDS011;11231;50.746;4.272;2023-06-26T00:53:56;7.63;;;3.43;;
22129;SDS011;11231;50.746;4.272;2023-06-26T00:56:22;8.13;;;3.73;;
22129;SDS011;11231;50.746;4.272;2023-06-26T00:58:48;9.40;;;3.83;;
22129;SDS011;11231;50.746;4.272;2023-06-26T01:01:14;8.80;;;4.00;;
22129;SDS011;11231;50.746;4.272;2023-06-26T01:03:45;10.43;;;4.10;;
22129;SDS011;11231;50.746;4.272;2023-06-26T01:06:16;8.37;;;3.63;;
22129;SDS011;11231;50.746;4.272;2023-06-26T01:08:44;9.00;;;3.73;;
22129;SDS011;11231;50.746;4.272;2023-06-26T01:11:12;8.53;;;3.77;;
22129;SDS011;11231;50.746;4.272;2023-06-26T01:13:38;8.77;;;3.63;;
22129;SDS011;11231;50.746;4.272;2023-06-26T01:16:06;7.93;;;3.60;;
22129;SDS011;11231;50.746;4.272;2023-06-26T01:18:32;8.50;;;3.40;;
22129;SDS011;11231;50.746;4.272;2023-06-26T01:20:59;7.27;;;3.40;;
22129;SDS011;11231;50.746;4.272;2023-06-26T01:23:44;8.27;;;3.70;;
22129;SDS011;11231;50.746;4.272;2023-06-26T01:26:29;9.47;;;3.70;;
22129;SDS011;11231;50.746;4.272;2023-06-26T01:29:00;10.40;;;3.67;;
22129;SDS011;11231;50.746;4.272;2023-06-26T01:31:28;9.13;;;3.90;;
22129;SDS011;11231;50.746;4.272;2023-06-26T01:33:56;10.97;;;4.00;;
22129;SDS011;11231;50.746;4.272;2023-06-26T01:36:24;9.90;;;3.60;;
22129;SDS011;11231;50.746;4.272;2023-06-26T01:38:50;8.80;;;3.77;;
22129;SDS011;11231;50.746;4.272;2023-06-26T01:41:16;11.83;;;3.90;;
22129;SDS011;11231;50.746;4.272;2023-06-26T01:43:56;11.67;;;3.70;;
22129;SDS011;11231;50.746;4.272;2023-06-26T01:46:35;6.97;;;3.40;;
22129;SDS011;11231;50.746;4.272;2023-06-26T01:49:12;10.20;;;4.00;;
22129;SDS011;11231;50.746;4.272;2023-06-26T01:54:44;10.40;;;3.60;;
22129;SDS011;11231;50.746;4.272;2023-06-26T01:57:17;8.17;;;3.73;;
22129;SDS011;11231;50.746;4.272;2023-06-26T01:59:45;11.00;;;3.73;;
22129;SDS011;11231;50.746;4.272;2023-06-26T02:02:12;11.13;;;3.77;;
22129;SDS011;11231;50.746;4.272;2023-06-26T02:04:38;9.57;;;3.60;;
22129;SDS011;11231;50.746;4.272;2023-06-26T02:07:05;10.63;;;3.80;;
22129;SDS011;11231;50.746;4.272;2023-06-26T02:09:31;11.37;;;4.00;;
22129;SDS011;11231;50.746;4.272;2023-06-26T02:11:57;9.83;;;3.90;;
22129;SDS011;11231;50.746;4.272;2023-06-26T02:14:23;9.30;;;3.63;;
22129;SDS011;11231;50.746;4.272;2023-06-26T02:16:48;8.63;;;3.60;;
22129;SDS011;11231;50.746;4.272;2023-06-26T02:19:14;11.10;;;4.43;;
22129;SDS011;11231;50.746;4.272;2023-06-26T02:21:46;11.63;;;4.10;;
22129;SDS011;11231;50.746;4.272;2023-06-26T02:24:15;12.63;;;4.60;;
22129;SDS011;11231;50.746;4.272;2023-06-26T02:26:40;10.70;;;3.80;;
22129;SDS011;11231;50.746;4.272;2023-06-26T02:29:10;11.30;;;4.37;;
22129;SDS011;11231;50.746;4.272;2023-06-26T02:31:35;9.00;;;3.47;;
22129;SDS011;11231;50.746;4.272;2023-06-26T02:34:01;12.67;;;4.27;;
22129;SDS011;11231;50.746;4.272;2023-06-26T02:36:27;10.87;;;4.20;;
22129;SDS011;11231;50.746;4.272;2023-06-26T02:38:52;11.63;;;3.97;;
22129;SDS011;11231;50.746;4.272;2023-06-26T02:41:18;10.17;;;3.97;;
22129;SDS011;11231;50.746;4.272;2023-06-26T02:43:44;10.73;;;4.30;;
22129;SDS011;11231;50.746;4.272;2023-06-26T02:46:10;10.43;;;3.83;;
22129;SDS011;11231;50.746;4.272;2023-06-26T02:48:36;15.10;;;4.83;;
22129;SDS011;11231;50.746;4.272;2023-06-26T02:51:01;13.17;;;4.80;;
22129;SDS011;11231;50.746;4.272;2023-06-26T02:53:30;11.43;;;4.20;;
22129;SDS011;11231;50.746;4.272;2023-06-26T02:55:56;14.27;;;4.70;;
22129;SDS011;11231;50.746;4.272;2023-06-26T02:58:22;13.40;;;4.33;;
22129;SDS011;11231;50.746;4.272;2023-06-26T03:00:49;13.27;;;4.70;;
22129;SDS011;11231;50.746;4.272;2023-06-26T03:03:17;11.23;;;4.33;;
22129;SDS011;11231;50.746;4.272;2023-06-26T03:05:45;12.63;;;4.33;;
22129;SDS011;11231;50.746;4.272;2023-06-26T03:08:12;13.67;;;4.23;;
22129;SDS011;11231;50.746;4.272;2023-06-26T03:10:38;11.90;;;4.57;;
22129;SDS011;11231;50.746;4.272;2023-06-26T03:13:04;11.57;;;4.67;;
22129;SDS011;11231;50.746;4.272;2023-06-26T03:15:30;14.70;;;5.03;;
22129;SDS011;11231;50.746;4.272;2023-06-26T03:17:56;14.60;;;4.87;;
22129;SDS011;11231;50.746;4.272;2023-06-26T03:20:25;12.40;;;4.70;;
22129;SDS011;11231;50.746;4.272;2023-06-26T03:22:53;15.47;;;4.50;;
22129;SDS011;11231;50.746;4.272;2023-06-26T03:25:20;17.27;;;4.60;;
22129;SDS011;11231;50.746;4.272;2023-06-26T03:27:47;14.13;;;4.63;;
22129;SDS011;11231;50.746;4.272;2023-06-26T03:30:15;12.93;;;4.60;;
22129;SDS011;11231;50.746;4.272;2023-06-26T03:32:44;20.23;;;5.03;;
22129;SDS011;11231;50.746;4.272;2023-06-26T03:35:10;18.63;;;4.83;;
22129;SDS011;11231;50.746;4.272;2023-06-26T03:37:36;14.97;;;5.07;;
22129;SDS011;11231;50.746;4.272;2023-06-26T03:40:02;14.73;;;4.63;;
22129;SDS011;11231;50.746;4.272;2023-06-26T03:42:30;15.63;;;4.43;;
22129;SDS011;11231;50.746;4.272;2023-06-26T03:44:55;13.40;;;4.70;;
22129;SDS011;11231;50.746;4.272;2023-06-26T03:47:21;17.33;;;5.33;;
22129;SDS011;11231;50.746;4.272;2023-06-26T03:49:47;15.93;;;4.27;;
22129;SDS011;11231;50.746;4.272;2023-06-26T03:52:12;16.67;;;5.03;;
22129;SDS011;11231;50.746;4.272;2023-06-26T03:54:38;16.13;;;4.43;;
22129;SDS011;11231;50.746;4.272;2023-06-26T03:57:04;16.30;;;5.00;;
22129;SDS011;11231;50.746;4.272;2023-06-26T03:59:30;15.90;;;4.33;;
22129;SDS011;11231;50.746;4.272;2023-06-26T04:01:56;17.03;;;5.03;;
22129;SDS011;11231;50.746;4.272;2023-06-26T04:04:22;17.23;;;4.63;;
22129;SDS011;11231;50.746;4.272;2023-06-26T04:06:47;18.83;;;5.00;;
22129;SDS011;11231;50.746;4.272;2023-06-26T04:09:13;15.27;;;4.83;;
22129;SDS011;11231;50.746;4.272;2023-06-26T04:11:39;15.73;;;4.73;;
22129;SDS011;11231;50.746;4.272;2023-06-26T04:14:04;16.63;;;4.67;;
22129;SDS011;11231;50.746;4.272;2023-06-26T04:16:30;16.87;;;4.97;;
22129;SDS011;11231;50.746;4.272;2023-06-26T04:18:56;16.50;;;4.70;;
22129;SDS011;11231;50.746;4.272;2023-06-26T04:21:22;15.50;;;4.37;;
22129;SDS011;11231;50.746;4.272;2023-06-26T04:23:50;19.20;;;5.30;;
22129;SDS011;11231;50.746;4.272;2023-06-26T04:26:16;16.17;;;5.13;;
22129;SDS011;11231;50.746;4.272;2023-06-26T04:28:42;13.70;;;5.10;;
22129;SDS011;11231;50.746;4.272;2023-06-26T04:31:08;16.27;;;4.70;;
22129;SDS011;11231;50.746;4.272;2023-06-26T04:33:34;14.33;;;4.47;;
22129;SDS011;11231;50.746;4.272;2023-06-26T04:36:04;17.17;;;4.20;;
22129;SDS011;11231;50.746;4.272;2023-06-26T04:38:33;14.90;;;4.30;;
22129;SDS011;11231;50.746;4.272;2023-06-26T04:40:59;18.53;;;4.20;;
22129;SDS011;11231;50.746;4.272;2023-06-26T04:43:26;14.27;;;4.00;;
22129;SDS011;11231;50.746;4.272;2023-06-26T04:45:51;15.70;;;3.90;;
22129;SDS011;11231;50.746;4.272;2023-06-26T04:48:17;17.63;;;3.93;;
22129;SDS011;11231;50.746;4.272;2023-06-26T04:50:43;27.30;;;4.43;;
22129;SDS011;11231;50.746;4.272;2023-06-26T04:53:11;16.43;;;3.43;;
22129;SDS011;11231;50.746;4.272;2023-06-26T04:55:37;15.17;;;3.90;;
22129;SDS011;11231;50.746;4.272;2023-06-26T04:58:03;16.53;;;3.80;;
22129;SDS011;11231;50.746;4.272;2023-06-26T05:00:28;14.03;;;3.53;;
22129;SDS011;11231;50.746;4.272;2023-06-26T05:02:54;15.05;;;3.85;;
22129;SDS011;11231;50.746;4.272;2023-06-26T05:05:26;16.65;;;3.80;;
22129;SDS011;11231;50.746;4.272;2023-06-26T05:07:53;15.23;;;3.28;;
22129;SDS011;11231;50.746;4.272;2023-06-26T05:10:20;17.67;;;3.67;;
22129;SDS011;11231;50.746;4.272;2023-06-26T05:12:46;14.90;;;3.20;;
22129;SDS011;11231;50.746;4.272;2023-06-26T05:15:11;12.35;;;3.40;;
22129;SDS011;11231;50.746;4.272;2023-06-26T05:17:37;14.65;;;3.40;;
22129;SDS011;11231;50.746;4.272;2023-06-26T05:20:03;14.77;;;3.47;;
22129;SDS011;11231;50.746;4.272;2023-06-26T05:22:31;11.75;;;3.10;;
22129;SDS011;11231;50.746;4.272;2023-06-26T05:24:58;12.20;;;3.00;;
22129;SDS011;11231;50.746;4.272;2023-06-26T05:27:26;13.07;;;3.40;;
22129;SDS011;11231;50.746;4.272;2023-06-26T05:29:52;13.60;;;3.20;;
22129;SDS011;11231;50.746;4.272;2023-06-26T05:32:18;13.65;;;3.28;;
22129;SDS011;11231;50.746;4.272;2023-06-26T05:34:47;14.20;;;3.38;;
22129;SDS011;11231;50.746;4.272;2023-06-26T05:37:20;11.52;;;3.38;;
22129;SDS011;11231;50.746;4.272;2023-06-26T05:39:47;13.93;;;2.70;;
22129;SDS011;11231;50.746;4.272;2023-06-26T05:42:13;14.10;;;3.55;;
22129;SDS011;11231;50.746;4.272;2023-06-26T05:44:39;14.05;;;2.97;;
22129;SDS011;11231;50.746;4.272;2023-06-26T05:47:05;12.93;;;2.80;;
22129;SDS011;11231;50.746;4.272;2023-06-26T05:49:30;11.82;;;2.70;;
22129;SDS011;11231;50.746;4.272;2023-06-26T05:51:56;13.27;;;2.83;;
22129;SDS011;11231;50.746;4.272;2023-06-26T05:54:23;14.40;;;3.30;;
22129;SDS011;11231;50.746;4.272;2023-06-26T05:56:50;18.40;;;3.13;;
22129;SDS011;11231;50.746;4.272;2023-06-26T05:59:21;10.45;;;2.65;;
22129;SDS011;11231;50.746;4.272;2023-06-26T06:01:47;8.93;;;2.40;;
22129;SDS011;11231;50.746;4.272;2023-06-26T06:04:13;11.50;;;2.42;;
22129;SDS011;11231;50.746;4.272;2023-06-26T06:06:40;12.40;;;2.50;;
22129;SDS011;11231;50.746;4.272;2023-06-26T06:09:06;11.35;;;2.63;;
22129;SDS011;11231;50.746;4.272;2023-06-26T06:11:31;12.35;;;2.83;;
22129;SDS011;11231;50.746;4.272;2023-06-26T06:13:57;13.65;;;2.53;;
22129;SDS011;11231;50.746;4.272;2023-06-26T06:16:25;12.95;;;2.50;;
22129;SDS011;11231;50.746;4.272;2023-06-26T06:18:51;9.82;;;2.22;;
22129;SDS011;11231;50.746;4.272;2023-06-26T06:21:16;10.30;;;1.90;;
22129;SDS011;11231;50.746;4.272;2023-06-26T06:23:42;11.23;;;2.40;;
22129;SDS011;11231;50.746;4.272;2023-06-26T06:26:08;8.13;;;2.03;;
22129;SDS011;11231;50.746;4.272;2023-06-26T06:28:33;12.65;;;2.00;;
22129;SDS011;11231;50.746;4.272;2023-06-26T06:30:59;8.15;;;1.83;;
22129;SDS011;11231;50.746;4.272;2023-06-26T06:33:25;10.57;;;1.95;;
22129;SDS011;11231;50.746;4.272;2023-06-26T06:35:50;14.05;;;2.80;;
22129;SDS011;11231;50.746;4.272;2023-06-26T06:38:16;11.27;;;2.28;;
22129;SDS011;11231;50.746;4.272;2023-06-26T06:40:42;15.35;;;2.10;;
22129;SDS011;11231;50.746;4.272;2023-06-26T06:43:07;7.57;;;1.92;;
22129;SDS011;11231;50.746;4.272;2023-06-26T06:45:33;9.45;;;2.28;;
22129;SDS011;11231;50.746;4.272;2023-06-26T06:47:59;8.38;;;1.80;;
22129;SDS011;11231;50.746;4.272;2023-06-26T06:50:24;9.50;;;1.90;;
22129;SDS011;11231;50.746;4.272;2023-06-26T06:52:50;9.45;;;1.92;;
22129;SDS011;11231;50.746;4.272;2023-06-26T06:55:15;7.05;;;1.85;;
22129;SDS011;11231;50.746;4.272;2023-06-26T06:57:41;7.47;;;1.60;;
22129;SDS011;11231;50.746;4.272;2023-06-26T07:00:08;8.45;;;1.83;;
22129;SDS011;11231;50.746;4.272;2023-06-26T07:02:35;8.48;;;1.73;;
22129;SDS011;11231;50.746;4.272;2023-06-26T07:05:02;7.35;;;1.70;;
22129;SDS011;11231;50.746;4.272;2023-06-26T07:07:29;10.02;;;1.70;;
22129;SDS011;11231;50.746;4.272;2023-06-26T07:10:00;8.88;;;1.90;;
22129;SDS011;11231;50.746;4.272;2023-06-26T07:12:30;7.95;;;1.50;;
22129;SDS011;11231;50.746;4.272;2023-06-26T07:14:56;7.25;;;1.50;;
22129;SDS011;11231;50.746;4.272;2023-06-26T07:17:22;6.28;;;1.60;;
22129;SDS011;11231;50.746;4.272;2023-06-26T07:19:48;10.98;;;2.10;;
22129;SDS011;11231;50.746;4.272;2023-06-26T07:22:14;8.38;;;1.33;;
22129;SDS011;11231;50.746;4.272;2023-06-26T07:24:41;5.13;;;1.40;;
22129;SDS011;11231;50.746;4.272;2023-06-26T07:27:07;8.82;;;1.70;;
22129;SDS011;11231;50.746;4.272;2023-06-26T07:29:32;6.70;;;1.45;;
22129;SDS011;11231;50.746;4.272;2023-06-26T07:31:58;7.07;;;1.75;;
22129;SDS011;11231;50.746;4.272;2023-06-26T07:34:24;11.55;;;2.20;;
22129;SDS011;11231;50.746;4.272;2023-06-26T07:36:50;5.53;;;1.50;;
22129;SDS011;11231;50.746;4.272;2023-06-26T07:39:15;10.82;;;2.08;;
22129;SDS011;11231;50.746;4.272;2023-06-26T07:41:41;5.75;;;1.40;;
22129;SDS011;11231;50.746;4.272;2023-06-26T07:44:06;4.90;;;1.17;;
22129;SDS011;11231;50.746;4.272;2023-06-26T07:46:32;6.13;;;1.40;;
22129;SDS011;11231;50.746;4.272;2023-06-26T07:48:58;5.00;;;1.40;;
22129;SDS011;11231;50.746;4.272;2023-06-26T07:51:24;8.48;;;1.10;;
22129;SDS011;11231;50.746;4.272;2023-06-26T07:53:49;7.45;;;1.60;;
22129;SDS011;11231;50.746;4.272;2023-06-26T07:56:15;6.38;;;1.42;;
22129;SDS011;11231;50.746;4.272;2023-06-26T07:58:41;6.90;;;1.27;;
22129;SDS011;11231;50.746;4.272;2023-06-26T08:01:06;7.05;;;1.88;;
22129;SDS011;11231;50.746;4.272;2023-06-26T08:03:32;5.60;;;1.60;;
22129;SDS011;11231;50.746;4.272;2023-06-26T08:05:58;7.95;;;1.65;;
22129;SDS011;11231;50.746;4.272;2023-06-26T08:08:23;7.25;;;1.30;;
22129;SDS011;11231;50.746;4.272;2023-06-26T08:10:49;9.80;;;1.70;;
22129;SDS011;11231;50.746;4.272;2023-06-26T08:13:15;5.55;;;1.50;;
22129;SDS011;11231;50.746;4.272;2023-06-26T08:15:40;7.03;;;1.52;;
22129;SDS011;11231;50.746;4.272;2023-06-26T08:18:06;6.88;;;1.60;;
22129;SDS011;11231;50.746;4.272;2023-06-26T08:20:32;4.57;;;1.20;;
22129;SDS011;11231;50.746;4.272;2023-06-26T08:22:57;7.05;;;1.52;;
22129;SDS011;11231;50.746;4.272;2023-06-26T08:25:23;6.68;;;1.55;;
22129;SDS011;11231;50.746;4.272;2023-06-26T08:27:49;6.55;;;1.42;;
22129;SDS011;11231;50.746;4.272;2023-06-26T08:30:17;5.50;;;1.50;;
22129;SDS011;11231;50.746;4.272;2023-06-26T08:32:43;7.97;;;1.55;;
22129;SDS011;11231;50.746;4.272;2023-06-26T08:35:08;8.65;;;1.60;;
22129;SDS011;11231;50.746;4.272;2023-06-26T08:37:35;5.43;;;1.40;;
22129;SDS011;11231;50.746;4.272;2023-06-26T08:40:01;7.97;;;1.70;;
22129;SDS011;11231;50.746;4.272;2023-06-26T08:42:26;7.88;;;1.30;;
22129;SDS011;11231;50.746;4.272;2023-06-26T08:44:52;7.88;;;1.50;;
22129;SDS011;11231;50.746;4.272;2023-06-26T08:47:18;8.40;;;1.40;;
22129;SDS011;11231;50.746;4.272;2023-06-26T08:49:51;5.32;;;1.27;;
22129;SDS011;11231;50.746;4.272;2023-06-26T08:52:28;7.20;;;1.40;;
22129;SDS011;11231;50.746;4.272;2023-06-26T08:54:59;7.30;;;1.30;;
22129;SDS011;11231;50.746;4.272;2023-06-26T08:57:28;9.55;;;1.40;;
22129;SDS011;11231;50.746;4.272;2023-06-26T08:59:55;5.85;;;1.40;;
22129;SDS011;11231;50.746;4.272;2023-06-26T09:02:21;5.57;;;1.38;;
22129;SDS011;11231;50.746;4.272;2023-06-26T09:04:48;5.78;;;1.30;;
22129;SDS011;11231;50.746;4.272;2023-06-26T09:07:15;7.07;;;1.58;;
22129;SDS011;11231;50.746;4.272;2023-06-26T09:09:41;7.07;;;1.45;;
22129;SDS011;11231;50.746;4.272;2023-06-26T09:12:08;6.57;;;1.50;;
22129;SDS011;11231;50.746;4.272;2023-06-26T09:14:34;4.75;;;1.35;;
22129;SDS011;11231;50.746;4.272;2023-06-26T09:17:01;6.78;;;1.40;;
22129;SDS011;11231;50.746;4.272;2023-06-26T09:19:27;5.43;;;1.27;;
22129;SDS011;11231;50.746;4.272;2023-06-26T09:21:53;4.82;;;1.55;;
22129;SDS011;11231;50.746;4.272;2023-06-26T09:24:19;7.32;;;1.50;;
22129;SDS011;11231;50.746;4.272;2023-06-26T09:26:46;5.80;;;1.40;;
22129;SDS011;11231;50.746;4.272;2023-06-26T09:29:13;7.25;;;1.45;;
22129;SDS011;11231;50.746;4.272;2023-06-26T09:31:40;6.75;;;1.60;;
22129;SDS011;11231;50.746;4.272;2023-06-26T09:34:06;5.88;;;1.40;;
22129;SDS011;11231;50.746;4.272;2023-06-26T09:36:32;6.22;;;1.27;;
22129;SDS011;11231;50.746;4.272;2023-06-26T09:39:08;7.13;;;1.70;;
22129;SDS011;11231;50.746;4.272;2023-06-26T09:41:36;8.00;;;1.70;;
22129;SDS011;11231;50.746;4.272;2023-06-26T09:44:05;4.55;;;1.33;;
22129;SDS011;11231;50.746;4.272;2023-06-26T09:46:32;6.90;;;1.67;;
22129;SDS011;11231;50.746;4.272;2023-06-26T09:49:09;5.22;;;1.40;;
22129;SDS011;11231;50.746;4.272;2023-06-26T09:51:39;5.35;;;1.40;;
22129;SDS011;11231;50.746;4.272;2023-06-26T09:54:06;4.82;;;1.25;;
22129;SDS011;11231;50.746;4.272;2023-06-26T09:56:33;4.75;;;1.48;;
22129;SDS011;11231;50.746;4.272;2023-06-26T09:59:00;5.28;;;1.30;;
22129;SDS011;11231;50.746;4.272;2023-06-26T10:01:26;6.35;;;1.23;;
22129;SDS011;11231;50.746;4.272;2023-06-26T10:03:56;5.97;;;1.40;;
22129;SDS011;11231;50.746;4.272;2023-06-26T10:06:24;6.03;;;1.50;;
22129;SDS011;11231;50.746;4.272;2023-06-26T10:09:16;5.32;;;1.40;;
22129;SDS011;11231;50.746;4.272;2023-06-26T10:11:51;7.32;;;1.60;;
22129;SDS011;11231;50.746;4.272;2023-06-26T10:14:47;6.43;;;1.08;;
22129;SDS011;11231;50.746;4.272;2023-06-26T10:17:16;4.32;;;1.40;;
22129;SDS011;11231;50.746;4.272;2023-06-26T10:19:44;5.88;;;1.30;;
22129;SDS011;11231;50.746;4.272;2023-06-26T10:22:16;5.43;;;1.30;;
22129;SDS011;11231;50.746;4.272;2023-06-26T10:24:45;4.57;;;1.38;;
22129;SDS011;11231;50.746;4.272;2023-06-26T10:27:17;4.72;;;1.15;;
22129;SDS011;11231;50.746;4.272;2023-06-26T10:29:49;7.47;;;1.58;;
22129;SDS011;11231;50.746;4.272;2023-06-26T10:32:19;5.00;;;1.27;;
22129;SDS011;11231;50.746;4.272;2023-06-26T10:34:48;3.15;;;1.30;;
22129;SDS011;11231;50.746;4.272;2023-06-26T10:37:14;6.97;;;1.38;;
22129;SDS011;11231;50.746;4.272;2023-06-26T10:39:47;4.95;;;1.25;;
22129;SDS011;11231;50.746;4.272;2023-06-26T10:42:18;5.80;;;1.50;;
22129;SDS011;11231;50.746;4.272;2023-06-26T10:44:45;4.57;;;1.20;;
22129;SDS011;11231;50.746;4.272;2023-06-26T10:47:30;6.15;;;1.17;;
22129;SDS011;11231;50.746;4.272;2023-06-26T10:50:15;5.35;;;1.23;;
22129;SDS011;11231;50.746;4.272;2023-06-26T10:56:04;4.78;;;1.40;;
22129;SDS011;11231;50.746;4.272;2023-06-26T11:03:46;6.00;;;1.40;;
22129;SDS011;11231;50.746;4.272;2023-06-26T11:06:19;5.00;;;1.45;;
22129;SDS011;11231;50.746;4.272;2023-06-26T11:08:46;6.90;;;1.27;;
22129;SDS011;11231;50.746;4.272;2023-06-26T11:11:14;6.70;;;1.50;;
22129;SDS011;11231;50.746;4.272;2023-06-26T11:13:40;6.57;;;1.30;;
22129;SDS011;11231;50.746;4.272;2023-06-26T11:16:06;5.78;;;1.23;;
22129;SDS011;11231;50.746;4.272;2023-06-26T11:18:32;3.30;;;1.02;;
22129;SDS011;11231;50.746;4.272;2023-06-26T11:21:07;7.80;;;1.20;;
22129;SDS011;11231;50.746;4.272;2023-06-26T11:23:34;4.60;;;1.20;;
22129;SDS011;11231;50.746;4.272;2023-06-26T11:26:14;4.03;;;1.20;;
22129;SDS011;11231;50.746;4.272;2023-06-26T11:29:01;4.95;;;1.17;;
22129;SDS011;11231;50.746;4.272;2023-06-26T11:31:28;4.28;;;1.17;;
22129;SDS011;11231;50.746;4.272;2023-06-26T11:33:59;4.53;;;1.20;;
22129;SDS011;11231;50.746;4.272;2023-06-26T11:36:29;11.77;;;1.40;;
22129;SDS011;11231;50.746;4.272;2023-06-26T11:38:56;5.05;;;1.30;;
22129;SDS011;11231;50.746;4.272;2023-06-26T11:41:29;4.35;;;1.48;;
22129;SDS011;11231;50.746;4.272;2023-06-26T11:44:03;7.68;;;1.20;;
22129;SDS011;11231;50.746;4.272;2023-06-26T11:46:30;4.22;;;0.93;;
22129;SDS011;11231;50.746;4.272;2023-06-26T11:48:56;4.25;;;1.25;;
22129;SDS011;11231;50.746;4.272;2023-06-26T11:51:22;3.40;;;1.00;;
22129;SDS011;11231;50.746;4.272;2023-06-26T11:53:48;5.15;;;1.35;;
22129;SDS011;11231;50.746;4.272;2023-06-26T11:56:15;7.55;;;1.52;;
22129;SDS011;11231;50.746;4.272;2023-06-26T11:58:57;5.50;;;1.20;;
22129;SDS011;11231;50.746;4.272;2023-06-26T12:04:13;5.35;;;1.73;;
22129;SDS011;11231;50.746;4.272;2023-06-26T12:06:45;5.78;;;1.23;;
22129;SDS011;11231;50.746;4.272;2023-06-26T12:09:13;4.57;;;1.08;;
22129;SDS011;11231;50.746;4.272;2023-06-26T12:11:42;5.32;;;1.30;;
22129;SDS011;11231;50.746;4.272;2023-06-26T12:14:09;7.20;;;1.52;;
22129;SDS011;11231;50.746;4.272;2023-06-26T12:16:36;3.45;;;1.10;;
22129;SDS011;11231;50.746;4.272;2023-06-26T12:19:04;5.00;;;1.20;;
22129;SDS011;11231;50.746;4.272;2023-06-26T12:24:06;5.50;;;1.38;;
22129;SDS011;11231;50.746;4.272;2023-06-26T12:26:34;6.35;;;1.02;;
22129;SDS011;11231;50.746;4.272;2023-06-26T12:31:33;6.25;;;1.20;;
22129;SDS011;11231;50.746;4.272;2023-06-26T12:33:59;8.20;;;1.55;;
22129;SDS011;11231;50.746;4.272;2023-06-26T12:36:26;4.35;;;1.27;;
22129;SDS011;11231;50.746;4.272;2023-06-26T12:38:54;9.45;;;1.48;;
22129;SDS011;11231;50.746;4.272;2023-06-26T12:41:23;4.03;;;1.30;;
22129;SDS011;11231;50.746;4.272;2023-06-26T12:43:49;11.25;;;1.60;;
22129;SDS011;11231;50.746;4.272;2023-06-26T12:46:20;10.88;;;1.40;;
22129;SDS011;11231;50.746;4.272;2023-06-26T12:49:00;5.18;;;1.30;;
22129;SDS011;11231;50.746;4.272;2023-06-26T12:51:25;4.85;;;1.38;;
22129;SDS011;11231;50.746;4.272;2023-06-26T12:53:52;7.70;;;1.50;;
22129;SDS011;11231;50.746;4.272;2023-06-26T12:56:18;6.22;;;1.20;;
22129;SDS011;11231;50.746;4.272;2023-06-26T12:58:45;6.43;;;1.33;;
22129;SDS011;11231;50.746;4.272;2023-06-26T13:01:10;8.60;;;1.58;;
22129;SDS011;11231;50.746;4.272;2023-06-26T13:03:38;5.68;;;1.30;;
22129;SDS011;11231;50.746;4.272;2023-06-26T13:06:05;5.47;;;1.60;;
22129;SDS011;11231;50.746;4.272;2023-06-26T13:08:31;4.78;;;1.50;;
22129;SDS011;11231;50.746;4.272;2023-06-26T13:10:57;4.18;;;1.20;;
22129;SDS011;11231;50.746;4.272;2023-06-26T13:13:22;4.90;;;1.30;;
22129;SDS011;11231;50.746;4.272;2023-06-26T13:15:48;7.90;;;1.67;;
22129;SDS011;11231;50.746;4.272;2023-06-26T13:18:14;6.78;;;1.67;;
22129;SDS011;11231;50.746;4.272;2023-06-26T13:20:40;6.32;;;1.33;;
22129;SDS011;11231;50.746;4.272;2023-06-26T13:23:06;5.50;;;1.35;;
22129;SDS011;11231;50.746;4.272;2023-06-26T13:25:32;12.07;;;2.05;;
22129;SDS011;11231;50.746;4.272;2023-06-26T13:27:58;6.53;;;1.70;;
22129;SDS011;11231;50.746;4.272;2023-06-26T13:30:24;9.05;;;1.20;;
22129;SDS011;11231;50.746;4.272;2023-06-26T13:32:50;5.85;;;1.42;;
22129;SDS011;11231;50.746;4.272;2023-06-26T13:35:16;4.45;;;1.30;;
22129;SDS011;11231;50.746;4.272;2023-06-26T13:37:42;9.70;;;1.50;;
22129;SDS011;11231;50.746;4.272;2023-06-26T13:40:08;7.07;;;1.40;;
22129;SDS011;11231;50.746;4.272;2023-06-26T13:42:34;8.70;;;1.90;;
22129;SDS011;11231;50.746;4.272;2023-06-26T13:45:01;4.97;;;1.58;;
22129;SDS011;11231;50.746;4.272;2023-06-26T13:47:28;5.97;;;1.38;;
22129;SDS011;11231;50.746;4.272;2023-06-26T13:49:54;7.72;;;1.50;;
22129;SDS011;11231;50.746;4.272;2023-06-26T13:52:20;5.68;;;1.60;;
22129;SDS011;11231;50.746;4.272;2023-06-26T13:54:46;6.78;;;1.50;;
22129;SDS011;11231;50.746;4.272;2023-06-26T13:57:11;7.47;;;1.80;;
22129;SDS011;11231;50.746;4.272;2023-06-26T13:59:38;7.00;;;1.38;;
22129;SDS011;11231;50.746;4.272;2023-06-26T14:02:07;3.40;;;1.10;;
22129;SDS011;11231;50.746;4.272;2023-06-26T14:04:33;9.85;;;1.52;;
22129;SDS011;11231;50.746;4.272;2023-06-26T14:06:59;2.95;;;1.15;;
22129;SDS011;11231;50.746;4.272;2023-06-26T14:09:25;7.85;;;1.38;;
22129;SDS011;11231;50.746;4.272;2023-06-26T14:11:51;6.90;;;1.38;;
22129;SDS011;11231;50.746;4.272;2023-06-26T14:14:16;5.90;;;1.17;;
22129;SDS011;11231;50.746;4.272;2023-06-26T14:16:42;6.93;;;1.50;;
22129;SDS011;11231;50.746;4.272;2023-06-26T14:19:08;9.63;;;2.08;;
22129;SDS011;11231;50.746;4.272;2023-06-26T14:21:39;6.50;;;1.25;;
22129;SDS011;11231;50.746;4.272;2023-06-26T14:24:05;4.28;;;1.23;;
22129;SDS011;11231;50.746;4.272;2023-06-26T14:26:31;3.58;;;1.10;;
22129;SDS011;11231;50.746;4.272;2023-06-26T14:28:59;5.97;;;1.40;;
22129;SDS011;11231;50.746;4.272;2023-06-26T14:31:25;4.85;;;1.10;;
22129;SDS011;11231;50.746;4.272;2023-06-26T14:33:51;5.45;;;1.02;;
22129;SDS011;11231;50.746;4.272;2023-06-26T14:36:17;3.45;;;1.00;;
22129;SDS011;11231;50.746;4.272;2023-06-26T14:38:44;4.82;;;1.10;;
22129;SDS011;11231;50.746;4.272;2023-06-26T14:41:10;4.35;;;1.30;;
22129;SDS011;11231;50.746;4.272;2023-06-26T14:43:36;7.28;;;1.10;;
22129;SDS011;11231;50.746;4.272;2023-06-26T14:46:03;3.65;;;0.90;;
22129;SDS011;11231;50.746;4.272;2023-06-26T14:48:29;5.70;;;1.10;;
22129;SDS011;11231;50.746;4.272;2023-06-26T14:50:55;3.22;;;1.10;;
22129;SDS011;11231;50.746;4.272;2023-06-26T14:53:20;11.35;;;4.45;;
22129;SDS011;11231;50.746;4.272;2023-06-26T14:55:46;10.48;;;5.00;;
22129;SDS011;11231;50.746;4.272;2023-06-26T14:58:12;8.43;;;3.00;;
22129;SDS011;11231;50.746;4.272;2023-06-26T15:00:37;12.38;;;3.92;;
22129;SDS011;11231;50.746;4.272;2023-06-26T15:03:03;5.60;;;1.25;;